createdAt,value
2019-06-15T00:01:22.576Z,7.27
2019-06-15T00:04:03.342Z,6.70
2019-06-15T00:06:44.334Z,6.90
2019-06-15T00:09:24.540Z,8.30
2019-06-15T00:12:05.525Z,7.30
2019-06-15T00:14:46.360Z,7.80
2019-06-15T00:17:26.907Z,7.87
2019-06-15T00:20:07.328Z,7.43
2019-06-15T00:22:48.129Z,9.23
2019-06-15T00:25:28.718Z,7.63
2019-06-15T00:28:09.233Z,7.70
2019-06-15T00:30:50.262Z,8.17
2019-06-15T00:33:31.052Z,9.87
2019-06-15T00:36:11.663Z,9.33
2019-06-15T00:41:52.166Z,7.90
2019-06-15T00:44:40.413Z,8.70
2019-06-15T00:47:28.179Z,7.80
2019-06-15T00:50:16.043Z,7.53
2019-06-15T00:53:03.816Z,7.70
2019-06-15T00:55:51.605Z,8.47
2019-06-15T00:58:39.383Z,7.53
2019-06-15T01:01:20.391Z,7.57
2019-06-15T01:04:01.069Z,7.40
2019-06-15T01:06:41.932Z,7.53
2019-06-15T01:09:22.695Z,7.70
2019-06-15T01:12:03.768Z,7.30
2019-06-15T01:14:44.408Z,7.90
2019-06-15T01:17:25.141Z,8.00
2019-06-15T01:20:05.637Z,8.33
2019-06-15T01:22:46.698Z,7.70
2019-06-15T01:25:27.211Z,8.10
2019-06-15T01:28:08.340Z,7.70
2019-06-15T01:30:49.100Z,8.47
2019-06-15T01:33:29.814Z,8.97
2019-06-15T01:36:10.327Z,7.33
2019-06-15T01:38:51.264Z,7.53
2019-06-15T01:41:32.085Z,7.50
2019-06-15T01:44:12.793Z,8.27
2019-06-15T01:46:53.643Z,7.23
2019-06-15T01:49:34.203Z,7.00
2019-06-15T01:52:15.046Z,7.00
2019-06-15T01:54:55.513Z,7.47
2019-06-15T01:57:36.321Z,6.20
2019-06-15T02:00:17.164Z,5.53
2019-06-15T02:02:57.958Z,5.60
2019-06-15T02:05:38.828Z,6.70
2019-06-15T02:08:19.539Z,5.80
2019-06-15T02:10:47.993Z,4.80
2019-06-15T02:13:35.749Z,5.17
2019-06-15T02:16:23.527Z,5.10
2019-06-15T02:19:11.460Z,5.77
2019-06-15T02:21:59.228Z,5.57
2019-06-15T02:24:47.001Z,5.83
2019-06-15T02:27:34.855Z,6.00
2019-06-15T02:30:43.404Z,5.40
2019-06-15T02:33:11.853Z,5.87
2019-06-15T02:35:59.650Z,6.50
2019-06-15T02:38:47.411Z,5.13
2019-06-15T02:41:35.269Z,5.17
2019-06-15T02:44:23.026Z,6.43
2019-06-15T02:47:10.812Z,5.63
2019-06-15T02:49:58.570Z,5.63
2019-06-15T02:52:46.339Z,5.57
2019-06-15T02:55:34.109Z,4.70
2019-06-15T02:58:21.882Z,7.17
2019-06-15T03:01:10.434Z,6.13
2019-06-15T03:03:38.858Z,5.43
2019-06-15T03:06:26.935Z,4.97
2019-06-15T03:09:15.072Z,4.97
2019-06-15T03:12:02.841Z,5.27
2019-06-15T03:14:50.601Z,5.80
2019-06-15T03:17:38.385Z,4.83
2019-06-15T03:20:26.144Z,4.47
2019-06-15T03:23:14.259Z,6.07
2019-06-15T03:26:05.543Z,5.10
2019-06-15T03:28:51.526Z,4.53
2019-06-15T03:31:39.385Z,4.93
2019-06-15T03:34:27.151Z,6.23
2019-06-15T03:37:14.936Z,5.07
2019-06-15T03:40:03.172Z,5.00
2019-06-15T03:42:31.619Z,5.37
2019-06-15T03:45:19.379Z,5.10
2019-06-15T03:48:07.178Z,5.83
2019-06-15T03:50:54.942Z,4.50
2019-06-15T03:53:42.720Z,5.77
2019-06-15T03:56:30.483Z,5.90
2019-06-15T03:59:18.267Z,4.53
2019-06-15T04:01:59.431Z,4.90
2019-06-15T04:04:40.317Z,5.23
2019-06-15T04:07:20.966Z,5.77
2019-06-15T04:10:01.870Z,5.87
2019-06-15T04:12:42.917Z,4.60
2019-06-15T04:15:23.590Z,4.63
2019-06-15T04:17:52.038Z,4.90
2019-06-15T04:20:39.789Z,4.90
2019-06-15T04:23:08.231Z,5.20
2019-06-15T04:25:55.990Z,4.83
2019-06-15T04:28:43.783Z,6.23
2019-06-15T04:31:31.555Z,4.80
2019-06-15T04:33:59.996Z,4.93
2019-06-15T04:36:28.424Z,4.30
2019-06-15T04:39:16.198Z,5.00
2019-06-15T04:41:44.619Z,4.90
2019-06-15T04:44:32.404Z,5.83
2019-06-15T04:47:20.247Z,5.00
2019-06-15T04:50:08.166Z,5.33
2019-06-15T04:52:55.955Z,5.30
2019-06-15T04:55:43.782Z,5.50
2019-06-15T04:58:31.567Z,5.60
2019-06-15T05:01:19.326Z,5.03
2019-06-15T05:03:59.971Z,5.20
2019-06-15T05:06:40.721Z,6.00
2019-06-15T05:09:09.163Z,5.50
2019-06-15T05:11:56.937Z,4.93
2019-06-15T05:14:44.717Z,5.10
2019-06-15T05:17:32.486Z,5.53
2019-06-15T05:20:20.250Z,4.67
2019-06-15T05:23:08.038Z,4.63
2019-06-15T05:25:55.793Z,4.67
2019-06-15T05:28:43.621Z,4.90
2019-06-15T05:31:31.417Z,5.00
2019-06-15T05:34:19.195Z,3.80
2019-06-15T05:36:47.619Z,4.10
2019-06-15T05:39:35.392Z,2.90
2019-06-15T05:42:23.242Z,3.30
2019-06-15T05:45:11.357Z,2.97
2019-06-15T05:47:59.142Z,2.87
2019-06-15T05:50:46.909Z,2.77
2019-06-15T05:53:34.683Z,3.57
2019-06-15T05:56:22.755Z,3.07
2019-06-15T05:59:10.526Z,3.20
2019-06-15T06:01:50.924Z,3.10
2019-06-15T06:04:31.469Z,3.23
2019-06-15T06:07:12.458Z,2.93
2019-06-15T06:09:53.099Z,3.33
2019-06-15T06:12:33.932Z,2.87
2019-06-15T06:15:14.534Z,3.20
2019-06-15T06:17:55.272Z,3.40
2019-06-15T06:20:36.356Z,3.30
2019-06-15T06:23:16.833Z,3.07
2019-06-15T06:25:57.524Z,3.20
2019-06-15T06:28:38.087Z,3.50
2019-06-15T06:31:18.502Z,3.47
2019-06-15T06:33:59.303Z,3.10
2019-06-15T06:36:39.924Z,3.93
2019-06-15T06:39:20.840Z,3.47
2019-06-15T06:42:01.459Z,2.90
2019-06-15T06:44:42.053Z,3.23
2019-06-15T06:47:23.155Z,2.93
2019-06-15T06:50:03.801Z,3.73
2019-06-15T06:52:44.514Z,3.20
2019-06-15T06:55:25.368Z,3.80
2019-06-15T06:58:06.041Z,2.90
2019-06-15T07:00:46.946Z,3.43
2019-06-15T07:03:27.432Z,2.80
2019-06-15T07:06:08.174Z,3.20
2019-06-15T07:08:49.048Z,2.37
2019-06-15T07:11:29.883Z,3.27
2019-06-15T07:14:10.585Z,2.83
2019-06-15T07:16:51.422Z,2.90
2019-06-15T07:19:32.215Z,2.30
2019-06-15T07:22:13.217Z,2.53
2019-06-15T07:24:53.868Z,3.70
2019-06-15T07:27:34.558Z,3.00
2019-06-15T07:30:15.236Z,2.60
2019-06-15T07:32:55.900Z,2.60
2019-06-15T07:35:36.989Z,2.87
2019-06-15T07:38:17.906Z,3.70
2019-06-15T07:40:58.577Z,3.33
2019-06-15T07:43:39.617Z,2.67
2019-06-15T07:46:20.458Z,3.13
2019-06-15T07:48:48.914Z,3.33
2019-06-15T07:51:36.654Z,3.07
2019-06-15T07:54:24.447Z,2.97
2019-06-15T07:57:12.293Z,2.93
2019-06-15T08:00:00.090Z,2.83
2019-06-15T08:02:40.932Z,2.80
2019-06-15T08:05:21.776Z,3.30
2019-06-15T08:08:02.628Z,2.33
2019-06-15T08:10:43.411Z,2.70
2019-06-15T08:13:24.047Z,2.63
2019-06-15T08:16:04.732Z,2.03
2019-06-15T08:18:45.286Z,2.50
2019-06-15T08:21:26.335Z,2.10
2019-06-15T08:24:07.029Z,2.17
2019-06-15T08:26:47.977Z,1.50
2019-06-15T08:29:28.778Z,2.57
2019-06-15T08:32:09.559Z,2.07
2019-06-15T08:34:50.270Z,1.90
2019-06-15T08:37:31.012Z,2.00
2019-06-15T08:40:11.802Z,1.90
2019-06-15T08:42:52.493Z,1.87
2019-06-15T08:45:33.464Z,1.70
2019-06-15T08:48:14.382Z,1.80
2019-06-15T08:50:55.748Z,2.57
2019-06-15T08:53:24.342Z,1.43
2019-06-15T08:56:12.361Z,1.60
2019-06-15T08:59:00.324Z,1.57
2019-06-15T09:01:41.350Z,1.50
2019-06-15T09:04:21.905Z,2.07
2019-06-15T09:07:02.733Z,1.50
2019-06-15T09:09:43.662Z,2.60
2019-06-15T09:12:25.158Z,1.90
2019-06-15T09:15:06.378Z,2.23
2019-06-15T09:17:46.843Z,1.80
2019-06-15T09:20:27.318Z,2.00
2019-06-15T09:22:55.744Z,1.90
2019-06-15T09:25:43.538Z,2.50
2019-06-15T09:28:31.302Z,2.07
2019-06-15T09:31:19.085Z,3.47
2019-06-15T09:34:18.454Z,2.10
2019-06-15T09:36:56.339Z,2.43
2019-06-15T09:39:44.123Z,2.67
2019-06-15T09:42:31.906Z,2.50
2019-06-15T09:45:19.690Z,2.30
2019-06-15T09:48:07.458Z,2.63
2019-06-15T09:50:55.565Z,2.60
2019-06-15T09:53:43.381Z,2.30
2019-06-15T09:56:31.165Z,2.40
2019-06-15T09:59:25.910Z,3.10
2019-06-15T10:02:01.171Z,2.90
2019-06-15T10:04:41.401Z,2.57
2019-06-15T10:07:22.450Z,2.80
2019-06-15T10:10:03.095Z,2.47
2019-06-15T10:12:44.144Z,1.90
2019-06-15T10:15:24.982Z,2.10
2019-06-15T10:18:05.959Z,1.73
2019-06-15T10:20:46.589Z,2.27
2019-06-15T10:23:27.246Z,1.60
2019-06-15T10:26:08.179Z,2.50
2019-06-15T10:28:49.215Z,2.53
2019-06-15T10:31:30.086Z,1.93
2019-06-15T10:34:10.723Z,2.10
2019-06-15T10:36:51.819Z,1.83
2019-06-15T10:39:32.268Z,1.63
2019-06-15T10:42:13.460Z,1.10
2019-06-15T10:44:54.485Z,1.67
2019-06-15T10:47:35.228Z,2.10
2019-06-15T10:50:16.244Z,1.70
2019-06-15T10:52:56.939Z,2.00
2019-06-15T10:55:37.720Z,1.43
2019-06-15T10:58:18.207Z,1.40
2019-06-15T11:00:58.942Z,1.10
2019-06-15T11:03:39.992Z,1.40
2019-06-15T11:06:20.543Z,1.40
2019-06-15T11:09:01.030Z,1.40
2019-06-15T11:11:41.774Z,1.10
2019-06-15T11:14:22.588Z,1.37
2019-06-15T11:17:03.523Z,1.57
2019-06-15T11:19:44.353Z,1.10
2019-06-15T11:22:24.931Z,1.33
2019-06-15T11:25:05.935Z,1.20
2019-06-15T11:27:46.512Z,1.30
2019-06-15T11:30:27.351Z,1.23
2019-06-15T11:33:08.111Z,1.30
2019-06-15T11:35:49.116Z,1.10
2019-06-15T11:38:29.751Z,1.20
2019-06-15T11:41:10.694Z,0.90
2019-06-15T11:43:51.664Z,1.40
2019-06-15T11:46:32.332Z,1.10
2019-06-15T11:49:13.018Z,1.00
2019-06-15T11:51:53.669Z,0.90
2019-06-15T11:54:34.517Z,1.13
2019-06-15T11:57:14.960Z,1.00
2019-06-15T11:59:55.792Z,1.10
2019-06-15T12:02:36.562Z,0.90
2019-06-15T12:05:17.479Z,1.30
2019-06-15T12:07:58.342Z,1.20
2019-06-15T12:10:38.933Z,1.00
2019-06-15T12:13:19.697Z,1.57
2019-06-15T12:16:00.719Z,0.90
2019-06-15T12:18:41.247Z,0.90
2019-06-15T12:21:21.675Z,1.10
2019-06-15T12:24:02.523Z,0.87
2019-06-15T12:26:43.380Z,1.10
2019-06-15T12:29:23.872Z,1.00
2019-06-15T12:32:04.369Z,1.20
2019-06-15T12:34:45.110Z,1.07
2019-06-15T12:37:26.128Z,0.80
2019-06-15T12:40:06.785Z,1.10
2019-06-15T12:42:47.762Z,1.27
2019-06-15T12:45:28.668Z,1.00
2019-06-15T12:48:09.206Z,1.13
2019-06-15T12:50:49.759Z,1.20
2019-06-15T12:53:30.719Z,0.90
2019-06-15T12:56:11.968Z,1.60
2019-06-15T12:58:52.330Z,1.00
2019-06-15T13:01:32.866Z,1.20
2019-06-15T13:04:13.338Z,1.20
2019-06-15T13:06:54.241Z,0.90
2019-06-15T13:09:35.241Z,0.90
2019-06-15T13:12:15.971Z,0.90
2019-06-15T13:14:56.841Z,1.23
2019-06-15T13:17:37.653Z,1.13
2019-06-15T13:20:18.367Z,1.70
2019-06-15T13:22:59.214Z,1.00
2019-06-15T13:25:39.970Z,0.90
2019-06-15T13:28:21.182Z,0.90
2019-06-15T13:31:14.876Z,0.90
2019-06-15T13:33:44.922Z,1.00
2019-06-15T13:36:25.824Z,0.90
2019-06-15T13:39:06.697Z,0.90
2019-06-15T13:41:47.191Z,1.00
2019-06-15T13:44:27.799Z,1.00
2019-06-15T13:47:08.675Z,1.10
2019-06-15T13:49:49.531Z,1.10
2019-06-15T13:52:30.348Z,1.00
2019-06-15T13:55:11.421Z,1.10
2019-06-15T13:57:52.210Z,1.20
2019-06-15T14:00:32.830Z,1.10
2019-06-15T14:03:13.620Z,1.20
2019-06-15T14:05:53.833Z,1.10
2019-06-15T14:08:34.489Z,1.00
2019-06-15T14:11:15.182Z,1.23
2019-06-15T14:13:56.366Z,1.30
2019-06-15T14:16:36.913Z,1.10
2019-06-15T14:19:17.544Z,1.10
2019-06-15T14:21:58.401Z,1.00
2019-06-15T14:24:38.819Z,1.20
2019-06-15T14:27:19.353Z,1.00
2019-06-15T14:30:00.169Z,1.07
2019-06-15T14:32:40.706Z,0.97
2019-06-15T14:35:21.483Z,1.20
2019-06-15T14:38:02.085Z,0.90
2019-06-15T14:40:42.919Z,1.00
2019-06-15T14:43:23.560Z,1.00
2019-06-15T14:46:04.402Z,1.20
2019-06-15T14:48:44.894Z,0.93
2019-06-15T14:51:25.258Z,1.00
2019-06-15T14:54:06.679Z,1.13
2019-06-15T14:56:47.512Z,1.10
2019-06-15T14:59:28.191Z,1.17
2019-06-15T15:02:13.704Z,1.30
2019-06-15T15:04:51.791Z,1.00
2019-06-15T15:07:20.223Z,0.90
2019-06-15T15:10:28.777Z,0.90
2019-06-15T15:13:16.576Z,0.90
2019-06-15T15:16:07.046Z,1.10
2019-06-15T15:18:53.907Z,1.00
2019-06-15T15:21:41.752Z,1.00
2019-06-15T15:24:29.517Z,1.00
2019-06-15T15:27:17.279Z,1.10
2019-06-15T15:30:27.090Z,1.00
2019-06-15T15:33:15.303Z,1.20
2019-06-15T15:36:03.083Z,1.00
2019-06-15T15:38:50.871Z,1.00
2019-06-15T15:41:38.635Z,0.80
2019-06-15T15:44:27.057Z,1.00
2019-06-15T15:47:16.220Z,0.93
2019-06-15T15:50:26.410Z,1.30
2019-06-15T15:53:15.619Z,1.13
2019-06-15T15:56:03.368Z,1.10
2019-06-15T15:58:51.176Z,0.90
2019-06-15T16:01:38.957Z,1.23
2019-06-15T16:04:19.455Z,1.27
2019-06-15T16:07:00.146Z,1.10
2019-06-15T16:09:41.089Z,1.10
2019-06-15T16:12:21.984Z,1.13
2019-06-15T16:15:02.733Z,1.13
2019-06-15T16:17:46.349Z,1.30
2019-06-15T16:20:26.615Z,1.10
2019-06-15T16:23:07.874Z,1.17
2019-06-15T16:25:48.544Z,1.40
2019-06-15T16:28:29.463Z,1.10
2019-06-15T16:31:13.864Z,1.17
2019-06-15T16:33:53.351Z,1.20
2019-06-15T16:36:36.331Z,1.03
2019-06-15T16:39:17.081Z,0.93
2019-06-15T16:41:57.759Z,1.20
2019-06-15T16:44:38.307Z,1.20
2019-06-15T16:47:19.042Z,0.90
2019-06-15T16:50:00.103Z,1.10
2019-06-15T16:52:40.768Z,1.07
2019-06-15T16:55:21.641Z,2.07
2019-06-15T16:58:02.283Z,1.00
2019-06-15T17:00:43.170Z,1.80
2019-06-15T17:03:26.102Z,1.20
2019-06-15T17:06:07.291Z,1.23
2019-06-15T17:08:47.753Z,1.17
2019-06-15T17:11:28.801Z,1.10
2019-06-15T17:14:09.707Z,1.00
2019-06-15T17:16:50.694Z,1.20
2019-06-15T17:19:19.169Z,1.57
2019-06-15T17:22:18.638Z,1.20
2019-06-15T17:24:56.629Z,1.00
2019-06-15T17:27:46.854Z,1.40
2019-06-15T17:30:33.969Z,1.20
2019-06-15T17:33:34.205Z,1.40
2019-06-15T17:36:11.255Z,1.10
2019-06-15T17:38:59.019Z,1.27
2019-06-15T17:41:47.388Z,1.03
2019-06-15T17:44:36.993Z,1.17
2019-06-15T17:47:26.336Z,1.20
2019-06-15T17:50:17.092Z,1.30
2019-06-15T17:53:06.951Z,1.30
2019-06-15T17:55:56.084Z,1.23
2019-06-15T17:58:46.384Z,1.30
2019-06-15T18:01:36.265Z,1.07
2019-06-15T18:04:16.681Z,0.90
2019-06-15T18:06:57.981Z,1.23
2019-06-15T18:09:38.239Z,1.43
2019-06-15T18:12:19.037Z,1.30
2019-06-15T18:14:59.880Z,1.20
2019-06-15T18:17:40.297Z,1.10
2019-06-15T18:20:21.466Z,1.37
2019-06-15T18:23:02.507Z,1.33
2019-06-15T18:25:43.180Z,1.47
2019-06-15T18:28:26.313Z,1.57
2019-06-15T18:31:06.779Z,1.53
2019-06-15T18:33:47.434Z,1.50
2019-06-15T18:36:27.734Z,1.93
2019-06-15T18:39:08.532Z,2.10
2019-06-15T18:41:49.202Z,2.00
2019-06-15T18:44:30.274Z,2.37
2019-06-15T18:47:10.820Z,1.90
2019-06-15T18:49:51.438Z,1.00
2019-06-15T18:52:33.139Z,1.20
2019-06-15T18:55:13.737Z,1.20
2019-06-15T18:57:56.677Z,1.73
2019-06-15T19:00:37.264Z,1.50
2019-06-15T19:03:17.818Z,1.43
2019-06-15T19:05:58.637Z,1.53
2019-06-15T19:08:39.391Z,1.50
2019-06-15T19:11:19.998Z,1.97
2019-06-15T19:14:00.778Z,1.20
2019-06-15T19:16:41.380Z,1.60
2019-06-15T19:19:21.803Z,2.03
2019-06-15T19:22:02.358Z,1.93
2019-06-15T19:24:42.932Z,1.70
2019-06-15T19:27:25.964Z,1.50
2019-06-15T19:30:07.296Z,1.50
2019-06-15T19:32:36.837Z,1.40
2019-06-15T19:35:26.305Z,1.60
2019-06-15T19:38:16.168Z,2.07
2019-06-15T19:41:06.720Z,1.80
2019-06-15T19:43:53.769Z,1.70
2019-06-15T19:46:41.537Z,2.33
2019-06-15T19:49:10.041Z,1.47
2019-06-15T19:51:57.807Z,1.43
2019-06-15T19:54:45.587Z,1.47
2019-06-15T19:57:36.010Z,1.80
2019-06-15T20:00:22.841Z,2.23
2019-06-15T20:03:06.881Z,4.90
2019-06-15T20:05:46.238Z,2.83
2019-06-15T20:08:26.894Z,2.60
2019-06-15T20:11:07.535Z,3.00
2019-06-15T20:13:48.246Z,2.30
2019-06-15T20:16:29.301Z,2.20
2019-06-15T20:19:10.124Z,2.23
2019-06-15T20:21:50.761Z,2.23
2019-06-15T20:24:31.478Z,2.40
2019-06-15T20:27:12.018Z,1.97
2019-06-15T20:29:52.975Z,2.20
2019-06-15T20:32:33.765Z,2.30
2019-06-15T20:35:20.593Z,2.43
2019-06-15T20:37:57.173Z,1.90
2019-06-15T20:40:37.877Z,2.30
2019-06-15T20:43:07.588Z,2.27
2019-06-15T20:45:56.250Z,2.73
2019-06-15T20:48:47.060Z,2.57
2019-06-15T20:51:37.050Z,2.57
2019-06-15T20:54:24.269Z,2.27
2019-06-15T20:57:12.043Z,2.47
2019-06-15T20:59:59.800Z,2.40
2019-06-15T21:02:40.358Z,2.70
2019-06-15T21:05:34.794Z,2.10
2019-06-15T21:08:06.644Z,2.93
2019-06-15T21:10:46.483Z,3.07
2019-06-15T21:13:26.942Z,2.50
2019-06-15T21:16:07.503Z,2.20
2019-06-15T21:18:48.276Z,2.83
2019-06-15T21:21:16.717Z,2.27
2019-06-15T21:24:06.455Z,2.87
2019-06-15T21:26:56.268Z,2.93
2019-06-15T21:29:43.462Z,2.80
2019-06-15T21:32:31.243Z,2.40
2019-06-15T21:35:19.007Z,2.83
2019-06-15T21:37:47.442Z,3.30
2019-06-15T21:40:36.874Z,2.57
2019-06-15T21:43:26.548Z,2.60
2019-06-15T21:46:16.707Z,2.90
2019-06-15T21:49:03.683Z,2.30
2019-06-15T21:51:51.468Z,3.10
2019-06-15T21:54:39.228Z,2.90
2019-06-15T21:57:27.166Z,2.93
2019-06-15T22:00:36.816Z,2.70
2019-06-15T22:03:17.102Z,3.10
2019-06-15T22:06:03.426Z,2.87
2019-06-15T22:08:38.632Z,2.87
2019-06-15T22:11:26.710Z,3.03
2019-06-15T22:14:17.121Z,2.47
2019-06-15T22:17:06.806Z,2.87
2019-06-15T22:19:56.931Z,2.40
2019-06-15T22:22:46.889Z,2.63
2019-06-15T22:25:35.980Z,3.00
2019-06-15T22:28:23.402Z,3.00
2019-06-15T22:31:11.164Z,2.90
2019-06-15T22:33:58.946Z,3.17
2019-06-15T22:36:47.951Z,2.97
2019-06-15T22:39:37.150Z,2.80
2019-06-15T22:42:06.878Z,2.90
2019-06-15T22:44:56.851Z,3.70
2019-06-15T22:47:46.747Z,3.47
2019-06-15T22:50:36.082Z,3.30
2019-06-15T22:53:26.963Z,3.17
2019-06-15T22:56:13.843Z,2.77
2019-06-15T22:59:01.614Z,3.23
2019-06-15T23:01:49.383Z,3.53
2019-06-15T23:04:29.721Z,2.63
2019-06-15T23:07:10.402Z,3.10
2019-06-15T23:09:38.846Z,2.93
2019-06-15T23:12:26.623Z,3.20
2019-06-15T23:15:14.463Z,3.17
2019-06-15T23:18:02.304Z,3.17
2019-06-15T23:20:50.064Z,3.10
2019-06-15T23:23:37.834Z,3.70
2019-06-15T23:26:25.611Z,3.83
2019-06-15T23:29:13.465Z,3.73
2019-06-15T23:32:01.224Z,3.10
2019-06-15T23:34:49.130Z,3.53
2019-06-15T23:37:37.560Z,3.27
2019-06-15T23:43:36.222Z,3.57
2019-06-15T23:46:26.934Z,3.40
2019-06-15T23:49:16.268Z,3.30
2019-06-15T23:52:03.456Z,3.23
2019-06-15T23:54:51.218Z,3.17
2019-06-15T23:57:19.644Z,3.50
